Time;durP1;ratioP1;P1;durP2;ratioP2;P2;SDS_P1;SDS_P2;PMS_P1;PMS_P2;Temp;Humidity;BMP_temperature;BMP_pressure;BME280_temperature;BME280_humidity;BME280_pressure;Samples;Min_cycle;Max_cycle;Signal;HPM_P1;HPM_P2
2022/02/28 00:00:31;;;;;;;;;43.50;36.50;;;;;-149.00;100.00;66333.84;5102034;27;45458;-79
2022/02/28 00:02:57;;;;;;;;;59.50;45.75;;;;;-149.00;100.00;66333.84;5102052;27;45421;-80
2022/02/28 00:05:24;;;;;;;;;57.25;46.75;;;;;-149.00;100.00;66333.84;5102195;27;45177;-80
2022/02/28 00:07:50;;;;;;;;;29.75;29.50;;;;;-149.00;100.00;66333.84;5102184;27;45260;-79
2022/02/28 00:10:16;;;;;;;;;31.25;29.50;;;;;-149.00;100.00;66333.84;5101736;27;46163;-80
2022/02/28 00:12:43;;;;;;;;;24.00;23.75;;;;;-149.00;100.00;66333.84;5102136;27;45350;-80
2022/02/28 00:15:11;;;;;;;;;22.50;20.75;;;;;-149.00;100.00;66333.84;5102268;27;45604;-80
2022/02/28 00:17:37;;;;;;;;;16.50;15.25;;;;;-149.00;100.00;66333.84;5101880;27;45276;-80
2022/02/28 00:20:07;;;;;;;;;9.75;9.75;;;;;-149.00;100.00;66333.84;5101767;27;45262;-79
2022/02/28 00:22:33;;;;;;;;;21.00;18.25;;;;;-149.00;100.00;66333.84;5102042;27;45337;-79
2022/02/28 00:24:59;;;;;;;;;18.50;18.50;;;;;-149.00;100.00;66333.84;5101483;27;45362;-79
2022/02/28 00:27:24;;;;;;;;;13.00;13.00;;;;;-149.00;100.00;66333.84;5101778;27;45425;-80
2022/02/28 00:29:50;;;;;;;;;18.00;16.75;;;;;-149.00;100.00;66333.84;5101560;27;45367;-80
2022/02/28 00:32:15;;;;;;;;;16.25;14.25;;;;;-149.00;100.00;66333.84;5101716;27;45358;-80
2022/02/28 00:34:40;;;;;;;;;14.50;14.50;;;;;-149.00;100.00;66333.84;5101900;27;45253;-80
2022/02/28 00:37:06;;;;;;;;;20.50;18.75;;;;;-149.00;100.00;66333.84;5102004;27;45406;-79
2022/02/28 00:39:31;;;;;;;;;14.00;13.50;;;;;-149.00;100.00;66333.84;5101512;27;45516;-80
2022/02/28 00:41:57;;;;;;;;;20.00;16.50;;;;;-149.00;100.00;66333.84;5101275;27;45275;-80
2022/02/28 00:44:22;;;;;;;;;13.75;13.75;;;;;-149.00;100.00;66333.84;5101797;27;45497;-80
2022/02/28 00:46:47;;;;;;;;;14.75;13.25;;;;;-149.00;100.00;66333.84;5100170;27;45282;-80
2022/02/28 00:49:13;;;;;;;;;16.75;15.00;;;;;-149.00;100.00;66333.84;5101396;27;46012;-80
2022/02/28 00:51:38;;;;;;;;;12.75;12.75;;;;;-149.00;100.00;66333.84;5101634;27;45203;-80
2022/02/28 00:54:04;;;;;;;;;14.75;14.50;;;;;-149.00;100.00;66333.84;5101348;27;45292;-80
2022/02/28 00:56:29;;;;;;;;;10.25;10.00;;;;;-149.00;100.00;66333.84;5101249;27;45259;-80
2022/02/28 00:58:55;;;;;;;;;10.00;10.00;;;;;-149.00;100.00;66333.84;5101431;27;45614;-80
2022/02/28 01:01:20;;;;;;;;;16.00;13.75;;;;;-149.00;100.00;66333.84;5101371;27;45302;-80
2022/02/28 01:03:46;;;;;;;;;12.00;9.00;;;;;-149.00;100.00;66333.84;5101594;27;45298;-80
2022/02/28 01:06:12;;;;;;;;;11.00;11.00;;;;;-149.00;100.00;66333.84;5101253;27;45445;-80
2022/02/28 01:08:39;;;;;;;;;11.50;9.75;;;;;-149.00;100.00;66333.84;5101174;27;46257;-79
2022/02/28 01:11:04;;;;;;;;;12.75;12.75;;;;;-149.00;100.00;66333.84;5101541;27;45410;-79
2022/02/28 01:13:30;;;;;;;;;15.00;15.00;;;;;-149.00;100.00;66333.84;5101041;27;45427;-80
2022/02/28 01:15:55;;;;;;;;;12.75;12.50;;;;;-149.00;100.00;66333.84;5101238;27;45255;-80
2022/02/28 01:18:21;;;;;;;;;16.00;15.75;;;;;-149.00;100.00;66333.84;5100540;27;45316;-80
2022/02/28 01:20:46;;;;;;;;;20.75;20.00;;;;;-149.00;100.00;66333.84;5082671;27;45268;-79
2022/02/28 01:23:11;;;;;;;;;14.25;14.25;;;;;-149.00;100.00;66333.84;5101137;27;45362;-80
2022/02/28 01:25:37;;;;;;;;;12.25;10.25;;;;;-149.00;100.00;66333.84;5100983;27;45326;-80
2022/02/28 01:28:03;;;;;;;;;10.00;10.00;;;;;-149.00;100.00;66333.84;5100779;27;45454;-79
2022/02/28 01:30:29;;;;;;;;;13.50;13.00;;;;;-149.00;100.00;66333.84;5100998;27;45685;-79
2022/02/28 01:32:54;;;;;;;;;9.00;9.00;;;;;-149.00;100.00;66333.84;5100807;27;45436;-79
2022/02/28 01:35:20;;;;;;;;;10.25;10.25;;;;;-149.00;100.00;66333.84;5100659;27;45329;-79
2022/02/28 01:37:45;;;;;;;;;8.50;8.50;;;;;-149.00;100.00;66333.84;5100606;27;45568;-80
2022/02/28 01:40:13;;;;;;;;;13.00;13.00;;;;;-149.00;100.00;66333.84;5100568;27;45333;-79
2022/02/28 01:42:40;;;;;;;;;13.25;13.00;;;;;-149.00;100.00;66333.84;5085117;27;45303;-80
2022/02/28 01:45:12;;;;;;;;;13.00;9.50;;;;;-149.00;100.00;66333.84;5080130;28;45327;-79
2022/02/28 01:47:39;;;;;;;;;12.75;12.75;;;;;-149.00;100.00;66333.84;5079932;28;45619;-79
2022/02/28 01:50:05;;;;;;;;;12.25;10.75;;;;;-149.00;100.00;66333.84;5080113;28;45283;-80
2022/02/28 01:52:30;;;;;;;;;17.75;13.00;;;;;-149.00;100.00;66333.84;5080296;28;45394;-80
2022/02/28 01:54:55;;;;;;;;;12.50;12.00;;;;;-149.00;100.00;66333.84;5079712;28;45383;-80
2022/02/28 01:57:21;;;;;;;;;11.75;9.00;;;;;-149.00;100.00;66333.84;5079913;28;45526;-79
2022/02/28 01:59:47;;;;;;;;;16.00;14.25;;;;;-149.00;100.00;66333.84;5079503;28;45269;-80
2022/02/28 02:02:13;;;;;;;;;9.00;9.00;;;;;-149.00;100.00;66333.84;5079983;28;45363;-80
2022/02/28 02:04:38;;;;;;;;;2.00;1.25;;;;;-149.00;100.00;66333.84;5079855;28;45298;-79
2022/02/28 02:07:04;;;;;;;;;13.75;13.75;;;;;-149.00;100.00;66333.84;5079699;28;45195;-80
2022/02/28 02:09:33;;;;;;;;;13.50;13.00;;;;;-149.00;100.00;66333.84;5079776;28;45375;-80
2022/02/28 02:11:58;;;;;;;;;13.00;10.25;;;;;-149.00;100.00;66333.84;5079923;28;45354;-80
2022/02/28 02:14:24;;;;;;;;;12.50;9.50;;;;;-149.00;100.00;66333.84;5079540;28;45402;-79
2022/02/28 02:16:49;;;;;;;;;14.50;12.00;;;;;-149.00;100.00;66333.84;5079456;28;45367;-80
2022/02/28 02:19:15;;;;;;;;;14.00;12.25;;;;;-149.00;100.00;66333.84;5079335;28;45364;-80
2022/02/28 02:21:40;;;;;;;;;12.75;12.00;;;;;-149.00;100.00;66333.84;5079866;28;45153;-80
2022/02/28 02:24:06;;;;;;;;;12.50;12.25;;;;;-149.00;100.00;66333.84;5079249;28;45347;-79
2022/02/28 02:26:31;;;;;;;;;12.50;10.75;;;;;-149.00;100.00;66333.84;5079507;28;45166;-80
2022/02/28 02:28:57;;;;;;;;;10.75;10.25;;;;;-149.00;100.00;66333.84;5079788;28;45369;-80
2022/02/28 02:31:22;;;;;;;;;15.50;11.75;;;;;-149.00;100.00;66333.84;5079775;28;45256;-80
2022/02/28 02:33:49;;;;;;;;;17.50;13.00;;;;;-149.00;100.00;66333.84;5079195;28;45353;-80
2022/02/28 02:36:18;;;;;;;;;12.50;10.25;;;;;-149.00;100.00;66333.84;5079649;28;45652;-80
2022/02/28 02:38:44;;;;;;;;;15.25;10.50;;;;;-149.00;100.00;66333.84;5079227;28;45426;-80
2022/02/28 02:41:10;;;;;;;;;10.25;8.75;;;;;-149.00;100.00;66333.84;5082242;27;45339;-80
2022/02/28 02:43:36;;;;;;;;;13.00;12.00;;;;;-149.00;100.00;66333.84;5099545;27;45504;-80
2022/02/28 02:46:03;;;;;;;;;10.25;10.25;;;;;-149.00;100.00;66333.84;5099706;27;45275;-80
2022/02/28 02:48:28;;;;;;;;;12.50;10.75;;;;;-149.00;100.00;66333.84;5099366;27;45366;-79
2022/02/28 02:50:54;;;;;;;;;12.00;12.00;;;;;-149.00;100.00;66333.84;5100026;27;45505;-79
2022/02/28 02:53:20;;;;;;;;;9.50;9.50;;;;;-149.00;100.00;66333.84;5099610;27;45633;-79
2022/02/28 02:55:46;;;;;;;;;11.00;11.00;;;;;-149.00;100.00;66333.84;5099374;27;45874;-80
2022/02/28 02:58:13;;;;;;;;;11.00;11.00;;;;;-149.00;100.00;66333.84;5099891;27;45411;-79
2022/02/28 03:00:44;;;;;;;;;11.00;10.75;;;;;-149.00;100.00;66333.84;5099879;27;45342;-80
2022/02/28 03:03:11;;;;;;;;;9.50;8.75;;;;;-149.00;100.00;66333.84;5099866;27;45298;-80
2022/02/28 03:05:37;;;;;;;;;8.25;7.75;;;;;-149.00;100.00;66333.84;5099774;27;45373;-80
2022/02/28 03:08:03;;;;;;;;;14.50;11.00;;;;;-149.00;100.00;66333.84;5099810;27;45281;-80
2022/02/28 03:10:29;;;;;;;;;16.25;13.25;;;;;-149.00;100.00;66333.84;5100799;27;45437;-80
2022/02/28 03:12:54;;;;;;;;;13.00;9.50;;;;;-149.00;100.00;66333.84;5103148;27;45595;-79
2022/02/28 03:15:20;;;;;;;;;12.50;11.75;;;;;-149.00;100.00;66333.84;5102966;27;46365;-80
2022/02/28 03:17:45;;;;;;;;;14.50;13.00;;;;;-149.00;100.00;66333.84;5102784;27;45379;-79
2022/02/28 03:20:11;;;;;;;;;11.00;9.75;;;;;-149.00;100.00;66333.84;5103372;27;45215;-80
2022/02/28 03:22:36;;;;;;;;;10.50;8.75;;;;;-149.00;100.00;66333.84;5103114;27;45403;-80
2022/02/28 03:25:03;;;;;;;;;10.75;10.75;;;;;-149.00;100.00;66333.84;5102494;27;45700;-80
2022/02/28 03:27:29;;;;;;;;;12.25;10.25;;;;;-149.00;100.00;66333.84;5102868;27;45301;-80
2022/02/28 03:29:55;;;;;;;;;15.50;14.00;;;;;-149.00;100.00;66333.84;5102899;27;45336;-80
2022/02/28 03:32:20;;;;;;;;;11.75;11.50;;;;;-149.00;100.00;66333.84;5102717;27;45393;-80
2022/02/28 03:34:46;;;;;;;;;12.75;12.75;;;;;-149.00;100.00;66333.84;5103199;27;46597;-80
2022/02/28 03:37:11;;;;;;;;;14.50;12.25;;;;;-149.00;100.00;66333.84;5102958;27;45340;-80
2022/02/28 03:39:36;;;;;;;;;14.50;11.25;;;;;-149.00;100.00;66333.84;5102831;27;45864;-80
2022/02/28 03:42:02;;;;;;;;;12.00;8.50;;;;;-149.00;100.00;66333.84;5092073;27;45368;-80
2022/02/28 03:44:27;;;;;;;;;11.25;10.25;;;;;-149.00;100.00;66333.84;5082097;28;45375;-80
2022/02/28 03:46:52;;;;;;;;;8.50;8.50;;;;;-149.00;100.00;66333.84;5081910;28;45411;-79
2022/02/28 03:49:19;;;;;;;;;9.25;9.25;;;;;-149.00;100.00;66333.84;5082313;28;45368;-80
2022/02/28 03:51:45;;;;;;;;;9.75;9.00;;;;;-149.00;100.00;66333.84;5082403;28;45316;-79
2022/02/28 03:54:12;;;;;;;;;10.75;9.25;;;;;-149.00;100.00;66333.84;5082060;28;45352;-80
2022/02/28 03:56:42;;;;;;;;;3.00;2.00;;;;;-149.00;100.00;66333.84;5083082;28;45283;-80
2022/02/28 03:59:09;;;;;;;;;12.50;12.50;;;;;-149.00;100.00;66333.84;5082573;28;45260;-80
2022/02/28 04:01:35;;;;;;;;;12.75;12.75;;;;;-149.00;100.00;66333.84;5081758;28;45396;-79
2022/02/28 04:04:03;;;;;;;;;8.00;8.00;;;;;-149.00;100.00;66333.84;5081945;28;45259;-79
2022/02/28 04:06:31;;;;;;;;;12.50;8.75;;;;;-149.00;100.00;66333.84;5082477;28;45216;-79
2022/02/28 04:08:57;;;;;;;;;8.50;8.50;;;;;-149.00;100.00;66333.84;5082787;28;45461;-80
2022/02/28 04:11:23;;;;;;;;;9.00;9.00;;;;;-149.00;100.00;66333.84;5082317;28;45379;-80
2022/02/28 04:13:48;;;;;;;;;11.75;9.25;;;;;-149.00;100.00;66333.84;5081597;28;46015;-80
2022/02/28 04:16:14;;;;;;;;;11.25;10.75;;;;;-149.00;100.00;66333.84;5081703;28;45442;-80
2022/02/28 04:18:39;;;;;;;;;7.50;7.50;;;;;-149.00;100.00;66333.84;5081443;28;45328;-80
2022/02/28 04:21:04;;;;;;;;;13.00;11.50;;;;;-149.00;100.00;66333.84;5081630;28;45282;-80
2022/02/28 04:23:30;;;;;;;;;12.25;11.00;;;;;-149.00;100.00;66333.84;5081400;28;45453;-79
2022/02/28 04:25:55;;;;;;;;;10.50;10.25;;;;;-149.00;100.00;66333.84;5081359;28;45291;-79
2022/02/28 04:28:21;;;;;;;;;7.00;6.50;;;;;-149.00;100.00;66333.84;5082073;28;45786;-80
2022/02/28 04:30:46;;;;;;;;;13.50;12.75;;;;;-149.00;100.00;66333.84;5081538;28;45179;-80
2022/02/28 04:33:12;;;;;;;;;13.25;11.75;;;;;-149.00;100.00;66333.84;5081575;28;46147;-80
2022/02/28 04:35:37;;;;;;;;;13.00;9.25;;;;;-149.00;100.00;66333.84;5081298;28;45331;-80
2022/02/28 04:38:05;;;;;;;;;12.00;11.00;;;;;-149.00;100.00;66333.84;5081604;28;45153;-80
2022/02/28 04:40:31;;;;;;;;;12.00;11.50;;;;;-149.00;100.00;66333.84;5081328;28;45292;-80
2022/02/28 04:42:56;;;;;;;;;12.75;12.25;;;;;-149.00;100.00;66333.84;5098822;27;45528;-80
2022/02/28 04:45:22;;;;;;;;;11.00;6.00;;;;;-149.00;100.00;66333.84;5101846;27;45264;-79
2022/02/28 04:47:47;;;;;;;;;13.00;10.00;;;;;-149.00;100.00;66333.84;5102232;27;45568;-80
2022/02/28 04:50:12;;;;;;;;;12.50;11.50;;;;;-149.00;100.00;66333.84;5102430;27;45386;-79
2022/02/28 04:52:38;;;;;;;;;11.75;11.75;;;;;-149.00;100.00;66333.84;5102247;27;45295;-79
2022/02/28 04:55:04;;;;;;;;;14.75;12.25;;;;;-149.00;100.00;66333.84;5101719;27;45307;-80
2022/02/28 04:57:42;;;;;;;;;12.50;10.50;;;;;-149.00;100.00;66333.84;5101710;27;45276;-80
2022/02/28 05:00:09;;;;;;;;;11.25;11.00;;;;;-149.00;100.00;66333.84;5083018;27;46322;-79
2022/02/28 05:02:34;;;;;;;;;16.75;11.75;;;;;-149.00;100.00;66333.84;5101182;27;45373;-79
2022/02/28 05:05:00;;;;;;;;;12.50;12.00;;;;;-149.00;100.00;66333.84;5101402;27;45366;-80
2022/02/28 05:07:26;;;;;;;;;12.50;11.25;;;;;-149.00;100.00;66333.84;5101548;27;45260;-80
2022/02/28 05:09:51;;;;;;;;;12.00;10.50;;;;;-149.00;100.00;66333.84;5082813;27;45490;-80
2022/02/28 05:12:17;;;;;;;;;12.00;10.75;;;;;-149.00;100.00;66333.84;5101219;27;46409;-80
2022/02/28 05:14:42;;;;;;;;;11.50;8.75;;;;;-149.00;100.00;66333.84;5101616;27;45400;-80
2022/02/28 05:17:07;;;;;;;;;12.50;11.25;;;;;-149.00;100.00;66333.84;5101342;27;45379;-80
2022/02/28 05:19:33;;;;;;;;;10.00;7.25;;;;;-149.00;100.00;66333.84;5101018;27;45410;-80
2022/02/28 05:21:58;;;;;;;;;11.75;8.00;;;;;-149.00;100.00;66333.84;5101092;27;46102;-80
2022/02/28 05:24:23;;;;;;;;;14.00;10.50;;;;;-149.00;100.00;66333.84;5100897;27;45401;-80
2022/02/28 05:26:49;;;;;;;;;11.00;11.00;;;;;-149.00;100.00;66333.84;5101054;27;45155;-80
2022/02/28 05:29:15;;;;;;;;;11.75;10.50;;;;;-149.00;100.00;66333.84;5101150;27;45390;-79
2022/02/28 05:31:41;;;;;;;;;9.25;9.25;;;;;-149.00;100.00;66333.84;5100646;27;45369;-79
2022/02/28 05:34:06;;;;;;;;;11.00;9.25;;;;;-149.00;100.00;66333.84;5100351;27;45350;-79
2022/02/28 05:36:32;;;;;;;;;12.00;9.25;;;;;-149.00;100.00;66333.84;5101693;27;45297;-80
2022/02/28 05:38:57;;;;;;;;;15.50;15.00;;;;;-149.00;100.00;66333.84;5101435;27;45320;-79
2022/02/28 05:41:22;;;;;;;;;10.00;10.00;;;;;-149.00;100.00;66333.84;5082417;27;47334;-80
2022/02/28 05:43:48;;;;;;;;;14.75;11.75;;;;;-149.00;100.00;66333.84;5100826;27;45382;-79
2022/02/28 05:46:13;;;;;;;;;15.75;12.75;;;;;-149.00;100.00;66333.84;5100880;27;45577;-79
2022/02/28 05:48:39;;;;;;;;;12.75;12.75;;;;;-149.00;100.00;66333.84;5100486;27;45258;-80
2022/02/28 05:51:04;;;;;;;;;16.50;14.25;;;;;-149.00;100.00;66333.84;5100421;27;46676;-80
2022/02/28 05:53:29;;;;;;;;;13.75;12.75;;;;;-149.00;100.00;66333.84;5100487;27;45304;-79
2022/02/28 05:55:55;;;;;;;;;10.00;10.00;;;;;-149.00;100.00;66333.84;5100346;27;45900;-80
2022/02/28 05:58:20;;;;;;;;;10.50;9.75;;;;;-149.00;100.00;66333.84;5100384;27;45342;-80
2022/02/28 06:00:46;;;;;;;;;13.50;12.50;;;;;-149.00;100.00;66333.84;5100824;27;46636;-79
2022/02/28 06:03:11;;;;;;;;;11.75;11.25;;;;;-149.00;100.00;66333.84;5100284;27;45383;-79
2022/02/28 06:05:37;;;;;;;;;15.00;12.00;;;;;-149.00;100.00;66333.84;5100728;27;45650;-80
2022/02/28 06:08:02;;;;;;;;;15.00;12.00;;;;;-149.00;100.00;66333.84;5100204;27;45396;-80
2022/02/28 06:10:27;;;;;;;;;12.50;11.00;;;;;-149.00;100.00;66333.84;5090708;27;45442;-79
2022/02/28 06:12:53;;;;;;;;;14.00;12.00;;;;;-149.00;100.00;66333.84;5079857;28;45355;-78
2022/02/28 06:15:18;;;;;;;;;10.25;10.25;;;;;-149.00;100.00;66333.84;5079707;28;45351;-79
2022/02/28 06:17:44;;;;;;;;;16.50;11.50;;;;;-149.00;100.00;66333.84;5083825;27;45426;-79
2022/02/28 06:20:10;;;;;;;;;15.75;14.75;;;;;-149.00;100.00;66333.84;5115753;27;46303;-79
2022/02/28 06:22:35;;;;;;;;;16.00;11.00;;;;;-149.00;100.00;66333.84;5120885;27;45361;-79
2022/02/28 06:25:01;;;;;;;;;11.25;10.75;;;;;-149.00;100.00;66333.84;5120224;27;45382;-79
2022/02/28 06:27:26;;;;;;;;;12.25;11.00;;;;;-149.00;100.00;66333.84;5120659;27;45353;-79
2022/02/28 06:29:51;;;;;;;;;11.25;10.25;;;;;-149.00;100.00;66333.84;5120495;27;45387;-79
2022/02/28 06:32:19;;;;;;;;;12.75;10.75;;;;;-149.00;100.00;66333.84;5120465;27;45271;-78
2022/02/28 06:34:44;;;;;;;;;13.75;9.50;;;;;-149.00;100.00;66333.84;5120603;27;45400;-78
2022/02/28 06:37:10;;;;;;;;;10.75;10.00;;;;;-149.00;100.00;66333.84;5120469;27;45350;-78
2022/02/28 06:39:37;;;;;;;;;16.25;12.25;;;;;-149.00;100.00;66333.84;5120250;27;45787;-79
2022/02/28 06:42:03;;;;;;;;;13.25;13.25;;;;;-149.00;100.00;66333.84;5107022;27;45591;-79
2022/02/28 06:44:28;;;;;;;;;14.00;10.50;;;;;-149.00;100.00;66333.84;5100136;27;45343;-79
2022/02/28 06:46:54;;;;;;;;;19.50;15.50;;;;;-149.00;100.00;66333.84;5102765;27;45485;-79
2022/02/28 06:49:20;;;;;;;;;18.00;14.50;;;;;-149.00;100.00;66333.84;5104649;27;45417;-79
2022/02/28 06:51:45;;;;;;;;;16.50;14.50;;;;;-149.00;100.00;66333.84;5124255;27;45216;-79
2022/02/28 06:54:10;;;;;;;;;17.75;16.00;;;;;-149.00;100.00;66333.84;5109097;27;45212;-79
2022/02/28 06:56:36;;;;;;;;;18.00;15.25;;;;;-149.00;100.00;66333.84;5121733;27;46570;-78
2022/02/28 06:59:01;;;;;;;;;14.75;14.50;;;;;-149.00;100.00;66333.84;5124197;27;46449;-78
2022/02/28 07:01:26;;;;;;;;;18.00;13.25;;;;;-149.00;100.00;66333.84;5123859;27;45215;-78
2022/02/28 07:03:52;;;;;;;;;17.00;17.00;;;;;-149.00;100.00;66333.84;5123824;27;45500;-78
2022/02/28 07:06:20;;;;;;;;;18.25;15.25;;;;;-149.00;100.00;66333.84;5123884;27;45208;-77
2022/02/28 07:08:47;;;;;;;;;24.75;23.00;;;;;-149.00;100.00;66333.84;5123581;27;45327;-78
2022/02/28 07:11:14;;;;;;;;;27.50;24.00;;;;;-149.00;100.00;66333.84;5113548;27;45418;-79
2022/02/28 07:13:40;;;;;;;;;3.50;2.00;;;;;-149.00;100.00;66333.84;5100377;27;45331;-80
2022/02/28 07:16:05;;;;;;;;;19.00;19.00;;;;;-149.00;100.00;66333.84;5102290;27;45564;-79
2022/02/28 07:18:30;;;;;;;;;17.00;16.75;;;;;-149.00;100.00;66333.84;5106797;27;45229;-79
2022/02/28 07:20:56;;;;;;;;;18.50;18.50;;;;;-149.00;100.00;66333.84;5103013;27;45282;-80
2022/02/28 07:23:21;;;;;;;;;18.00;14.00;;;;;-149.00;100.00;66333.84;5103143;27;45154;-80
2022/02/28 07:25:47;;;;;;;;;19.00;14.75;;;;;-149.00;100.00;66333.84;5102816;27;45347;-80
2022/02/28 07:28:12;;;;;;;;;16.25;12.50;;;;;-149.00;100.00;66333.84;5102771;27;46313;-80
2022/02/28 07:30:38;;;;;;;;;20.00;15.00;;;;;-149.00;100.00;66333.84;5102868;27;45366;-79
2022/02/28 07:33:03;;;;;;;;;19.25;18.00;;;;;-149.00;100.00;66333.84;5102777;27;45345;-79
2022/02/28 07:35:29;;;;;;;;;17.25;14.50;;;;;-149.00;100.00;66333.84;5102588;27;45495;-79
2022/02/28 07:37:54;;;;;;;;;20.00;20.00;;;;;-149.00;100.00;66333.84;5102526;27;45372;-80
2022/02/28 07:40:20;;;;;;;;;29.25;24.50;;;;;-149.00;100.00;66333.84;5102472;27;45330;-80
2022/02/28 07:42:45;;;;;;;;;24.75;21.50;;;;;-149.00;100.00;66333.84;5084167;27;45305;-80
2022/02/28 07:45:12;;;;;;;;;26.50;25.75;;;;;-149.00;100.00;66333.84;5102412;27;45758;-80
2022/02/28 07:47:38;;;;;;;;;32.25;27.00;;;;;-149.00;100.00;66333.84;5102236;27;46613;-80
2022/02/28 07:50:04;;;;;;;;;33.00;28.25;;;;;-149.00;100.00;66333.84;5101893;27;45476;-80
2022/02/28 07:52:30;;;;;;;;;28.25;23.75;;;;;-149.00;100.00;66333.84;5103128;27;45352;-80
2022/02/28 07:54:56;;;;;;;;;23.50;20.75;;;;;-149.00;100.00;66333.84;5103372;27;45523;-77
2022/02/28 07:57:21;;;;;;;;;24.50;22.50;;;;;-149.00;100.00;66333.84;5083211;27;47480;-78
2022/02/28 07:59:47;;;;;;;;;24.75;24.25;;;;;-149.00;100.00;66333.84;5102463;27;45197;-77
2022/02/28 08:02:12;;;;;;;;;30.00;25.00;;;;;-149.00;100.00;66333.84;5103641;27;45634;-79
2022/02/28 08:04:38;;;;;;;;;20.50;20.00;;;;;-149.00;100.00;66333.84;5105429;27;45240;-78
2022/02/28 08:07:03;;;;;;;;;27.25;23.75;;;;;-149.00;100.00;66333.84;5103576;27;45222;-79
2022/02/28 08:09:30;;;;;;;;;20.25;18.50;;;;;-149.00;100.00;66333.84;5089069;27;45331;-77
2022/02/28 08:11:55;;;;;;;;;16.75;15.75;;;;;-149.00;100.00;66333.84;5106082;27;45402;-77
2022/02/28 08:14:21;;;;;;;;;14.50;14.00;;;;;-149.00;100.00;66333.84;5106978;27;45408;-79
2022/02/28 08:16:47;;;;;;;;;17.75;13.75;;;;;-149.00;100.00;66333.84;5109025;27;46017;-78
2022/02/28 08:19:12;;;;;;;;;18.75;16.25;;;;;-149.00;100.00;66333.84;5093630;27;45382;-78
2022/02/28 08:21:38;;;;;;;;;16.75;14.75;;;;;-149.00;100.00;66333.84;5109373;27;45422;-78
2022/02/28 08:24:03;;;;;;;;;15.75;15.75;;;;;-149.00;100.00;66333.84;5103984;27;45630;-78
2022/02/28 08:26:29;;;;;;;;;19.00;18.25;;;;;-149.00;100.00;66333.84;5114270;27;44904;-78
2022/02/28 08:28:54;;;;;;;;;21.75;18.00;;;;;-149.00;100.00;66333.84;5109903;27;45267;-79
2022/02/28 08:31:19;;;;;;;;;17.50;13.50;;;;;-149.00;100.00;66333.84;5106456;27;45357;-81
2022/02/28 08:33:45;;;;;;;;;14.25;14.25;;;;;-149.00;100.00;66333.84;5107652;27;45435;-78
2022/02/28 08:36:10;;;;;;;;;17.50;15.25;;;;;-149.00;100.00;66333.84;5098650;27;45764;-77
2022/02/28 08:38:36;;;;;;;;;9.50;7.50;;;;;-149.00;100.00;66333.84;5086293;27;45432;-76
2022/02/28 08:41:01;;;;;;;;;19.75;14.25;;;;;-149.00;100.00;66333.84;5104659;27;45045;-78
2022/02/28 08:43:26;;;;;;;;;12.25;11.25;;;;;-149.00;100.00;66333.84;5101600;27;45157;-79
2022/02/28 08:45:52;;;;;;;;;14.00;14.00;;;;;-149.00;100.00;66333.84;5101123;27;45565;-79
2022/02/28 08:48:18;;;;;;;;;12.00;12.00;;;;;-149.00;100.00;66333.84;5100127;27;45521;-79
2022/02/28 08:50:43;;;;;;;;;17.25;14.75;;;;;-149.00;100.00;66333.84;5099293;27;45655;-78
2022/02/28 08:53:08;;;;;;;;;14.75;12.75;;;;;-149.00;100.00;66333.84;5099020;27;45568;-79
2022/02/28 08:55:34;;;;;;;;;17.75;17.75;;;;;-149.00;100.00;66333.84;5100083;27;46322;-77
2022/02/28 08:57:59;;;;;;;;;18.25;17.50;;;;;-149.00;100.00;66333.84;5100251;27;45488;-79
2022/02/28 09:00:24;;;;;;;;;14.75;13.25;;;;;-149.00;100.00;66333.84;5100973;27;45331;-78
2022/02/28 09:02:50;;;;;;;;;14.25;14.25;;;;;-149.00;100.00;66333.84;5100276;27;45431;-79
2022/02/28 09:05:15;;;;;;;;;18.50;16.50;;;;;-149.00;100.00;66333.84;5101170;27;45950;-76
2022/02/28 09:07:41;;;;;;;;;16.25;16.25;;;;;-149.00;100.00;66333.84;5100313;27;45341;-78
2022/02/28 09:10:06;;;;;;;;;20.50;15.00;;;;;-149.00;100.00;66333.84;5101097;27;45320;-76
2022/02/28 09:12:32;;;;;;;;;14.50;14.50;;;;;-149.00;100.00;66333.84;5100635;27;45449;-77
2022/02/28 09:14:57;;;;;;;;;17.00;14.75;;;;;-149.00;100.00;66333.84;5102747;27;46280;-79
2022/02/28 09:17:23;;;;;;;;;22.00;17.25;;;;;-149.00;100.00;66333.84;5106680;27;45377;-79
2022/02/28 09:19:48;;;;;;;;;13.75;13.00;;;;;-149.00;100.00;66333.84;5084150;27;45351;-80
2022/02/28 09:22:15;;;;;;;;;18.75;15.00;;;;;-149.00;100.00;66333.84;5101979;27;45534;-79
2022/02/28 09:24:41;;;;;;;;;20.50;17.50;;;;;-149.00;100.00;66333.84;5101098;27;46211;-78
2022/02/28 09:27:07;;;;;;;;;19.00;15.50;;;;;-149.00;100.00;66333.84;5100849;27;45618;-78
2022/02/28 09:29:41;;;;;;;;;20.00;17.00;;;;;;;;5134505;27;45351;-76
2022/02/28 09:32:07;;;;;;;;;14.25;13.75;;;;;;;;5135863;27;45599;-76
2022/02/28 09:34:32;;;;;;;;;16.50;13.25;;;;;;;;5137324;27;45292;-76
2022/02/28 09:36:59;;;;;;;;;13.75;13.75;;;;;;;;5115830;27;46984;-76
2022/02/28 09:39:24;;;;;;;;;14.75;13.50;;;;;;;;5117135;27;45429;-77
2022/02/28 09:41:50;;;;;;;;;19.25;16.25;;;;;;;;5117081;27;45251;-76
2022/02/28 09:44:15;;;;;;;;;16.00;16.00;;;;;;;;5128849;27;45424;-77
2022/02/28 09:46:44;;;;;;;;;16.50;13.25;;;;;;;;5137617;27;45435;-77
2022/02/28 09:49:10;;;;;;;;;12.25;11.00;;;;;;;;5136250;27;47098;-77
2022/02/28 09:51:35;;;;;;;;;14.00;13.75;;;;;;;;5131947;27;45373;-77
2022/02/28 09:54:00;;;;;;;;;20.50;20.50;;;;;;;;5116894;27;45535;-77
2022/02/28 09:56:26;;;;;;;;;20.25;19.75;;;;;;;;5134263;27;45247;-77
2022/02/28 09:58:52;;;;;;;;;15.25;12.75;;;;;;;;5137439;27;45370;-76
2022/02/28 10:01:17;;;;;;;;;14.25;12.50;;;;;;;;5136018;27;45294;-77
2022/02/28 10:03:42;;;;;;;;;17.00;16.00;;;;;;;;5131313;27;45398;-77
2022/02/28 10:06:08;;;;;;;;;17.00;14.75;;;;;;;;5135339;27;45259;-76
2022/02/28 10:08:43;;;;;;;;;15.25;14.25;;;;;;;;5137287;27;46263;-75
2022/02/28 10:11:29;;;;;;;;;16.50;15.75;;;;;;;;5137421;27;45735;-75
2022/02/28 10:13:55;;;;;;;;;15.00;14.25;;;;;;;;5137123;27;45280;-75
2022/02/28 10:16:31;;;;;;;;;13.25;13.25;;;;;;;;5137239;27;45294;-75
2022/02/28 10:18:56;;;;;;;;;13.50;13.50;;;;;;;;5152539;27;45455;-76
2022/02/28 10:21:35;;;;;;;;;15.67;13.33;;;;;;;;5156641;27;45377;-76
2022/02/28 10:24:01;;;;;;;;;14.67;14.00;;;;;;;;5158039;27;45405;-75
2022/02/28 10:26:26;;;;;;;;;15.33;14.00;;;;;;;;5156551;27;46299;-75
2022/02/28 10:29:03;;;;;;;;;13.00;13.00;;;;;;;;5157781;27;46927;-75
2022/02/28 10:31:28;;;;;;;;;17.00;16.67;;;;;;;;5156456;27;46201;-75
2022/02/28 10:33:55;;;;;;;;;14.67;14.00;;;;;;;;5134664;27;45483;-75
2022/02/28 10:36:23;;;;;;;;;13.33;13.33;;;;;;;;5135877;27;46187;-76
2022/02/28 10:38:52;;;;;;;;;15.33;15.33;;;;;;;;5136170;27;45406;-75
2022/02/28 10:41:25;;;;;;;;;20.00;16.00;;;;;;;;5122721;27;45309;-75
2022/02/28 10:43:52;;;;;;;;;18.33;16.33;;;;;;;;5115159;27;45313;-77
2022/02/28 10:46:24;;;;;;;;;14.67;13.67;;;;;;;;5099740;27;46952;-76
2022/02/28 10:49:16;;;;;;;;;18.33;15.33;;;;;;;;5101832;27;45546;-75
2022/02/28 10:52:02;;;;;;;;;16.33;14.67;;;;;;;;5106027;27;45437;-78
2022/02/28 10:54:29;;;;;;;;;13.67;13.67;;;;;;;;5114035;27;45686;-78
2022/02/28 10:56:54;;;;;;;;;15.33;14.00;;;;;;;;5122767;27;45461;-76
2022/02/28 10:59:20;;;;;;;;;17.67;15.33;;;;;;;;5120786;27;47077;-79
2022/02/28 11:01:46;;;;;;;;;15.33;15.33;;;;;;;;5122711;27;45300;-77
2022/02/28 11:04:11;;;;;;;;;14.67;13.00;;;;;;;;5122896;27;45342;-77
2022/02/28 11:06:37;;;;;;;;;13.67;12.00;;;;;;;;5122788;27;45481;-78
2022/02/28 11:09:04;;;;;;;;;16.67;16.67;;;;;;;;5115472;27;46022;-77
2022/02/28 11:11:29;;;;;;;;;17.00;14.33;;;;;;;;5122969;27;45285;-78
2022/02/28 11:13:54;;;;;;;;;20.00;18.00;;;;;;;;5122642;27;45795;-76
2022/02/28 11:16:20;;;;;;;;;18.33;17.67;;;;;;;;5122456;27;45339;-76